Terminal Aerodrome Forecast
Issued by NWS Paducah, KY

Home | Current Version | Previous Version | Graphics & Text | Print | Product List | Glossary On
Versions: 1 2 3 4 5 6 7 8 9 10 11 12 13 14 15 16 17 18 19 20 21 22 23 24 25
000
FTUS43 KPAH 042248 AAC
TAFEVV
TAF AMD
KEVV 042248Z 0423/0518 35012G20KT 1/4SM +SN VV009
     FM050200 36013KT 3SM -SN BR OVC008
     FM051000 01009KT 5SM BR SCT005 OVC025
     FM051400 35008KT P6SM OVC050=

USA.gov is the U.S. government's official web portal to all federal, state and local government web resources and services.